Falls City, Idaho
Current Conditions -  °F | °C
As of 6:53 PM on Sunday 21 Dec 2014 (Local Time) from KJER Reporting Station
Overcast Overcast  
Wind Chill: 26°   Ceiling: 6000
Heat Index: 37°   Visibility: 10mi
Dew Point: 35°   Wind: 24mph
Humidity: 93%   Direction: 240°WSW
Pressure: 30.01"   Gusts: 33mph
Location:  42.7238°N, 114.338°W
Report Text: KJER 220153Z AUTO 24021G29KT 10SM FEW006 BKN060 OVC080 03/02 A3001 RMK AO2 PK WND 24030/0140 SLP170 T00280017
Loading
Personal Weather Stations






























Interactive Weather Map New forecast layout! Learn more

10-Day Weather Forecast

Advertisements
Track Severe Weather on mobile